Flight Track Log - Related Links

Times and Time Zones

All times are in EDT time to prevent confusion due to time zone crossing. See the SWA706 flight status page for this flight to view local times or setup timezone preferences in your user account.

Time Position Orientation Groundspeed Altitude Reporting Facility
EDT Latitude Longitude Course Direction KTS MPH feet Rate Location/Type
Sat 07:06:48 PM 41.7500 -87.8333 277° West 214 246 3,600  Level Chicago TRACON
Sat 07:07:42 PM 41.7500 -87.9000 270° West 245 282 4,000 222 Climbing Chicago TRACON
Sat 07:08:36 PM 41.7333 -87.9833 255° West 264 304 4,000 1,165 Level Chicago TRACON
Sat 07:10:01 PM 41.7442 -88.1269 276° West 269 310 6,700 2,548 Climbing Chicago Center
Sat 07:11:02 PM 41.7692 -88.2256 289° West 284 327 10,200 3,171 Climbing Chicago Center
Sat 07:12:00 PM 41.8711 -88.6317 277° West  Level FlightAware Approximate
Sat 07:12:04 PM 41.7953 -88.3306 288° West 298 343 13,200  Level Chicago Center
Sat 07:13:06 PM 41.8403 -88.4447 298° West 347 399 15,000 2,293 Climbing Chicago Center
Sat 07:14:07 PM 41.9153 -88.5803 307° West 384 442 17,900 2,488 Climbing Chicago Center
Sat 07:15:09 PM 41.9917 -88.6886 314° West 400 460 20,100 2,177 Climbing Chicago Center
Sat 07:16:11 PM 42.0631 -88.8131 308° West 427 491 22,400 2,049 Climbing Chicago Center
Sat 07:17:12 PM 42.0792 -88.9894 277° West 440 506 24,300 1,951 Climbing Chicago Center
Sat 07:18:14 PM 42.0853 -89.1614 273° West 452 520 26,400 1,887 Climbing Chicago Center
Sat 07:19:16 PM 42.0925 -89.3353 273° West 459 528 28,200 1,694 Climbing Chicago Center
Sat 07:20:18 PM 42.0992 -89.5108 273° West 468 539 29,900 1,756 Climbing Chicago Center
Sat 07:21:19 PM 42.1047 -89.6886 272° West 474 545 31,800 1,024 Climbing Chicago Center
Sat 07:22:21 PM 42.1086 -89.8639 272° West 471 542 32,000 677 Climbing Chicago Center
Sat 07:23:23 PM 42.1131 -90.0589 272° West 466 536 33,200 1,366 Climbing Chicago Center
Sat 07:24:24 PM 42.1361 -90.2253 281° West 456 525 34,800 1,122 Climbing Chicago Center
Sat 07:25:26 PM 42.1589 -90.3950 280° West 461 531 35,500 1,065 Climbing Chicago Center
Sat 07:26:28 PM 42.1822 -90.5653 281° West 465 535 37,000 1,220 Climbing Chicago Center
Sat 07:27:29 PM 42.2031 -90.7336 280° West 462 532 38,000 488 Climbing Chicago Center
Sat 07:28:31 PM 42.2250 -90.9025 280° West 460 529 38,000  Level Chicago Center
Sat 07:29:33 PM 42.2492 -91.1031 279° West 456 525 38,000  Level Chicago Center
Sat 07:30:34 PM 42.2711 -91.2686 280° West 452 520 38,000  Level Chicago Center
Sat 07:31:36 PM 42.2914 -91.4342 279° West 449 517 38,000  Level Chicago Center
Sat 07:32:37 PM 42.3128 -91.6008 280° West 451 519 38,000  Level Chicago Center
Sat 07:33:39 PM 42.3331 -91.7681 279° West 452 520 38,000  Level Chicago Center
Sat 07:34:41 PM 42.3528 -91.9367 279° West 453 521 38,000  Level Chicago Center
Sat 07:35:42 PM 42.3725 -92.1011 279° West 448 516 38,000  Level Chicago Center
Sat 07:36:44 PM 42.3964 -92.3031 279° West 453 521 38,000  Level Chicago Center
Sat 07:37:45 PM 42.4158 -92.4700 279° West 451 519 38,000  Level Chicago Center
Sat 07:38:47 PM 42.4347 -92.6369 279° West 452 520 38,000  Level Chicago Center
Sat 07:39:49 PM 42.4536 -92.8028 279° West 450 518 38,000  Level Chicago Center
Sat 07:40:50 PM 42.4717 -92.9669 279° West 446 513 38,000  Level Chicago Center
Sat 07:41:52 PM 42.4906 -93.1283 279° West 439 505 38,000  Level Chicago Center
Sat 07:42:37 PM 42.5033 -93.2617 277° West 439 505 38,000  Level Minneapolis Center
Sat 07:43:38 PM 42.5217 -93.4197 279° West 436 502 38,000  Level Minneapolis Center
Sat 07:44:40 PM 42.5717 -93.5625 295° West 428 493 38,000  Level Minneapolis Center
Sat 07:45:41 PM 42.6397 -93.7306 299° West 427 491 38,000  Level Minneapolis Center
Sat 07:46:43 PM 42.6975 -93.8711 299° West 429 494 38,000  Level Minneapolis Center
Sat 07:47:44 PM 42.7556 -94.0067 300° West 421 484 38,000  Level Minneapolis Center
Sat 07:48:45 PM 42.8197 -94.1011 313° West 425 489 38,000  Level Minneapolis Center
Sat 07:50:48 PM 42.9844 -94.3631 311° West 416 479 38,000  Level Minneapolis Center
Sat 07:51:50 PM 42.9947 -94.5208 275° West 426 490 38,000  Level Minneapolis Center
Sat 07:52:51 PM 42.9911 -94.6958 268° West 425 489 38,000  Level Minneapolis Center
Sat 07:53:53 PM 42.9886 -94.8575 269° West 426 490 38,000  Level Minneapolis Center
Sat 07:54:54 PM 42.9864 -95.0197 269° West 428 493 38,000  Level Minneapolis Center
Sat 07:55:55 PM 42.9842 -95.2136 269° West 427 491 38,000  Level Minneapolis Center
Sat 07:56:57 PM 42.9803 -95.3767 268° West 428 493 38,000  Level Minneapolis Center
Sat 07:57:58 PM 42.9775 -95.5406 269° West 431 496 38,000  Level Minneapolis Center
Sat 07:59:00 PM 42.9744 -95.7022 269° West 428 493 38,000  Level Minneapolis Center
Sat 08:00:01 PM 42.9706 -95.8650 268° West 429 494 38,000  Level Minneapolis Center
Sat 08:01:02 PM 42.9653 -96.0247 267° West 425 489 38,000  Level Minneapolis Center
Sat 08:02:04 PM 42.9625 -96.1858 269° West 423 487 38,000  Level Minneapolis Center
Sat 08:03:05 PM 42.9583 -96.3450 268° West 422 486 38,000  Level Minneapolis Center
Sat 08:04:06 PM 42.9536 -96.5061 268° West 424 488 38,000  Level Minneapolis Center
Sat 08:05:08 PM 42.9486 -96.6653 268° West 421 484 38,000  Level Minneapolis Center
Sat 08:06:09 PM 42.9422 -96.8572 267° West 422 486 38,000  Level Minneapolis Center
Sat 08:07:10 PM 42.9372 -97.0181 268° West 423 487 38,000  Level Minneapolis Center
Sat 08:08:12 PM 42.9325 -97.1778 268° West 423 487 38,000  Level Minneapolis Center
Sat 08:09:13 PM 42.9269 -97.3358 267° West 419 482 38,000  Level Minneapolis Center
Sat 08:10:14 PM 42.9211 -97.4950 267° West 420 483 38,000  Level Minneapolis Center
Sat 08:11:15 PM 42.9150 -97.6517 267° West 416 479 38,000  Level Minneapolis Center
Sat 08:12:17 PM 42.9089 -97.8086 267° West 415 478 38,000  Level Minneapolis Center
Sat 08:13:18 PM 42.9019 -97.9653 267° West 415 478 38,000  Level Minneapolis Center
Sat 08:14:19 PM 42.8964 -98.1194 267° West 410 472 38,000  Level Minneapolis Center
Sat 08:15:20 PM 42.8886 -98.2981 267° West 410 472 38,000  Level Minneapolis Center
Sat 08:16:22 PM 42.8817 -98.4525 267° West 409 471 38,000  Level Minneapolis Center
Sat 08:17:23 PM 42.8742 -98.6050 266° West 407 468 38,000  Level Minneapolis Center
Sat 08:18:24 PM 42.8664 -98.7592 266° West 407 468 38,000  Level Minneapolis Center
Sat 08:19:26 PM 42.8592 -98.9114 266° West 404 465 38,000  Level Minneapolis Center
Sat 08:20:27 PM 42.8522 -99.0614 266° West 400 460 38,000  Level Minneapolis Center
Sat 08:21:28 PM 42.8439 -99.2139 266° West 402 463 38,000  Level Minneapolis Center
Sat 08:22:30 PM 42.8361 -99.3661 266° West 403 464 38,000  Level Minneapolis Center
Sat 08:23:31 PM 42.8258 -99.5494 266° West 404 465 38,000  Level Minneapolis Center
Sat 08:24:33 PM 42.8172 -99.7019 266° West 405 466 38,000  Level Minneapolis Center
Sat 08:25:34 PM 42.8083 -99.8550 266° West 404 465 38,000  Level Minneapolis Center
Sat 08:26:36 PM 42.8000 -100.0069 266° West 404 465 38,000  Level Minneapolis Center
Sat 08:27:37 PM 42.7906 -100.1589 265° West 405 466 38,000  Level Minneapolis Center
Sat 08:28:22 PM 42.7844 -100.2681 266° West 409 471 38,000  Level Denver Center
Sat 08:29:23 PM 42.7736 -100.4222 265° West 409 471 38,000  Level Denver Center
Sat 08:30:25 PM 42.7644 -100.5758 265° West 408 470 38,000  Level Denver Center
Sat 08:31:26 PM 42.7525 -100.7608 265° West 407 468 38,000  Level Denver Center
Sat 08:32:28 PM 42.7433 -100.8975 265° West 409 471 38,000  Level Denver Center
Sat 08:33:29 PM 42.7319 -101.0681 265° West 407 468 38,000  Level Denver Center
Sat 08:34:31 PM 42.7222 -101.2117 265° West 403 464 38,000  Level Denver Center
Sat 08:35:33 PM 42.7097 -101.3811 264° West 404 465 38,000  Level Denver Center
Sat 08:36:34 PM 42.7000 -101.5272 265° West 406 467 38,000  Level Denver Center
Sat 08:37:36 PM 42.6867 -101.6956 264° West 403 464 38,000  Level Denver Center
Sat 08:38:37 PM 42.6581 -101.8228 253° West 399 459 38,000  Level Denver Center
Sat 08:39:39 PM 42.6350 -101.9881 259° West 397 457 38,000  Level Denver Center
Sat 08:40:40 PM 42.6236 -102.1300 264° West 396 456 38,000  Level Denver Center
Sat 08:41:42 PM 42.6108 -102.2989 264° West 401 461 38,000  Level Denver Center
Sat 08:42:43 PM 42.5997 -102.4431 264° West 402 463 38,000  Level Denver Center
Sat 08:43:45 PM 42.5861 -102.6100 264° West 399 459 38,000  Level Denver Center
Sat 08:44:46 PM 42.5742 -102.7536 264° West 400 460 38,000  Level Denver Center
Sat 08:45:48 PM 42.5619 -102.8983 264° West 403 464 38,000  Level Denver Center
Sat 08:46:49 PM 42.5492 -103.0639 264° West 397 457 38,000  Level Denver Center
Sat 08:47:51 PM 42.5367 -103.2061 263° West 397 457 38,000  Level Denver Center
Sat 08:48:52 PM 42.5225 -103.3719 263° West 397 457 38,000  Level Denver Center
Sat 08:49:54 PM 42.5100 -103.5128 263° West 395 455 38,000  Level Denver Center
Sat 08:50:55 PM 42.4972 -103.6544 263° West 395 455 38,000  Level Denver Center
Sat 08:51:57 PM 42.4822 -103.8194 263° West 395 455 38,000  Level Denver Center
Sat 08:52:58 PM 42.4692 -103.9600 263° West 394 453 38,000  Level Denver Center
Sat 08:54:00 PM 42.4536 -104.1278 263° West 401 461 38,000  Level Denver Center
Sat 08:55:01 PM 42.4394 -104.2717 262° West 401 461 38,000  Level Denver Center
Sat 08:56:02 PM 42.4250 -104.4158 262° West 401 461 38,000  Level Denver Center
Sat 08:57:04 PM 42.4081 -104.5869 262° West 403 464 38,000  Level Denver Center
Sat 08:58:05 PM 42.3933 -104.7342 262° West 407 468 38,000  Level Denver Center
Sat 08:59:07 PM 42.3800 -104.8769 263° West 401 461 38,000  Level Denver Center
Sat 09:00:08 PM 42.3642 -105.0414 263° West 395 455 38,000  Level Denver Center
Sat 09:01:10 PM 42.3497 -105.1817 262° West 393 452 38,000  Level Denver Center
Sat 09:02:11 PM 42.3350 -105.3244 262° West 398 458 38,000  Level Denver Center
Sat 09:03:12 PM 42.3178 -105.4911 262° West 400 460 38,000  Level Denver Center
Sat 09:04:14 PM 42.3025 -105.6353 262° West 405 466 38,000  Level Denver Center
Sat 09:05:15 PM 42.2839 -105.8017 261° West 403 464 38,000  Level Denver Center
Sat 09:06:17 PM 42.2686 -105.9425 262° West 396 456 38,000  Level Denver Center
Sat 09:07:18 PM 42.2525 -106.0825 261° West 396 456 38,000  Level Denver Center
Sat 09:08:20 PM 42.2350 -106.2469 262° West 398 458 38,000 293 Level Denver Center
Sat 09:09:21 PM 42.2186 -106.3892 261° West 400 460 38,600 738 Climbing Denver Center
Sat 09:10:22 PM 42.2003 -106.5378 261° West 400 460 39,500 683 Climbing Denver Center
Sat 09:11:24 PM 42.1808 -106.7050 261° West 405 466 40,000 244 Climbing Denver Center
Sat 09:12:25 PM 42.1647 -106.8483 261° West 406 467 40,000  Level Denver Center
Sat 09:13:27 PM 42.1450 -107.0172 261° West 409 471 40,000  Level Denver Center
Sat 09:14:28 PM 42.1269 -107.1622 261° West 411 473 40,000  Level Denver Center
Sat 09:15:29 PM 42.1103 -107.3061 261° West 407 468 40,000  Level Denver Center
Sat 09:16:31 PM 42.0889 -107.4722 260° West 405 466 40,000  Level Denver Center
Sat 09:17:32 PM 42.0719 -107.6142 261° West 403 464 40,000  Level Denver Center
Sat 09:18:34 PM 42.0511 -107.7794 260° West 403 464 40,000  Level Denver Center
Sat 09:19:35 PM 42.0328 -107.9197 260° West 401 461 40,000  Level Denver Center
Sat 09:20:12 PM 42.0206 -108.0133 260° West 400 460 40,000  Level Salt Lake Center
Sat 09:21:13 PM 42.0036 -108.1544 261° West 402 463 40,000  Level Salt Lake Center
Sat 09:22:15 PM 41.9825 -108.3164 260° West 396 456 40,000  Level Salt Lake Center
Sat 09:23:16 PM 41.9647 -108.4533 260° West 390 449 40,000  Level Salt Lake Center
Sat 09:24:17 PM 41.9436 -108.6117 260° West 388 447 40,000  Level Salt Lake Center
Sat 09:25:18 PM 41.9250 -108.7478 260° West 388 447 40,000  Level Salt Lake Center
Sat 09:26:19 PM 41.9064 -108.8806 259° West 382 440 40,000  Level Salt Lake Center
Sat 09:27:20 PM 41.8842 -109.0350 259° West 380 437 40,000  Level Salt Lake Center
Sat 09:28:22 PM 41.8664 -109.1681 260° West 381 438 40,000  Level Salt Lake Center
Sat 09:29:23 PM 41.8442 -109.3264 259° West 387 445 40,000  Level Salt Lake Center
Sat 09:30:24 PM 41.8244 -109.4597 259° West 385 443 40,000  Level Salt Lake Center
Sat 09:31:25 PM 41.8044 -109.5953 259° West 388 447 40,000  Level Salt Lake Center
Sat 09:32:26 PM 41.7819 -109.7525 259° West 387 445 40,000  Level Salt Lake Center
Sat 09:33:27 PM 41.7619 -109.8928 259° West 398 458 40,000  Level Salt Lake Center
Sat 09:34:28 PM 41.7369 -110.0583 259° West 407 468 40,000  Level Salt Lake Center
Sat 09:35:30 PM 41.7158 -110.2000 259° West 407 468 40,000  Level Salt Lake Center
Sat 09:36:31 PM 41.6947 -110.3433 259° West 409 471 40,000  Level Salt Lake Center
Sat 09:37:32 PM 41.6681 -110.5103 258° West 412 474 40,000  Level Salt Lake Center
Sat 09:38:33 PM 41.6472 -110.6542 259° West 413 475 40,000  Level Salt Lake Center
Sat 09:39:34 PM 41.6200 -110.8200 258° West 411 473 40,000  Level Salt Lake Center
Sat 09:40:35 PM 41.6003 -110.9514 259° West 407 468 40,000  Level Salt Lake Center
Sat 09:41:36 PM 41.5767 -111.0967 258° West 404 465 40,000  Level Salt Lake Center
Sat 09:42:38 PM 41.5544 -111.2378 258° West 392 451 40,000  Level Salt Lake Center
Sat 09:43:39 PM 41.5281 -111.4072 258° West 392 451 40,000  Level Salt Lake Center
Sat 09:44:40 PM 41.5047 -111.5489 258° West 394 453 40,000  Level Salt Lake Center
Sat 09:45:41 PM 41.4819 -111.6906 258° West 394 453 40,000  Level Salt Lake Center
Sat 09:46:42 PM 41.4586 -111.8328 258° West 397 457 40,000  Level Salt Lake Center
Sat 09:47:43 PM 41.4344 -111.9761 257° West 401 461 40,000  Level Salt Lake Center
Sat 09:48:44 PM 41.4114 -112.1194 258° West 400 460 40,000  Level Salt Lake Center
Sat 09:49:45 PM 41.3867 -112.2625 257° West 399 459 40,000  Level Salt Lake Center
Sat 09:50:47 PM 41.3625 -112.4047 257° West 397 457 40,000  Level Salt Lake Center
Sat 09:51:48 PM 41.3331 -112.5778 257° West 402 463 40,000  Level Salt Lake Center
Sat 09:52:49 PM 41.3089 -112.7228 258° West 404 465 40,000  Level Salt Lake Center
Sat 09:53:50 PM 41.2836 -112.8689 257° West 407 468 40,000  Level Salt Lake Center
Sat 09:54:51 PM 41.2583 -113.0156 257° West 409 471 40,000  Level Salt Lake Center
Sat 09:55:52 PM 41.2317 -113.1606 256° West 406 467 40,000  Level Salt Lake Center
Sat 09:56:53 PM 41.2056 -113.3039 256° West 402 463 40,000  Level Salt Lake Center
Sat 09:57:55 PM 41.1800 -113.4481 257° West 403 464 40,000  Level Salt Lake Center
Sat 09:58:56 PM 41.1533 -113.5928 256° West 404 465 40,000  Level Salt Lake Center
Sat 09:59:57 PM 41.1261 -113.7367 256° West 405 466 40,000  Level Salt Lake Center
Sat 10:00:58 PM 41.1008 -113.8833 257° West 408 470 40,000  Level Salt Lake Center
Sat 10:01:59 PM 41.0681 -114.0592 256° West 411 473 40,000  Level Salt Lake Center
Sat 10:03:01 PM 41.0408 -114.2081 256° West 417 480 40,000  Level Salt Lake Center
Sat 10:04:02 PM 41.0117 -114.3558 255° West 416 479 40,000  Level Salt Lake Center
Sat 10:05:03 PM 40.9833 -114.5089 256° West 418 481 40,000  Level Salt Lake Center
Sat 10:06:04 PM 40.9564 -114.6517 256° West 418 481 40,000  Level Salt Lake Center
Sat 10:07:06 PM 40.9253 -114.8169 256° West 416 479 40,000  Level Salt Lake Center
Sat 10:08:07 PM 40.8944 -114.9567 254° West 415 478 40,000  Level Salt Lake Center
Sat 10:09:08 PM 40.8683 -115.0989 256° West 414 476 40,000  Level Salt Lake Center
Sat 10:10:09 PM 40.8336 -115.2628 254° West 414 476 40,000  Level Salt Lake Center
Sat 10:11:10 PM 40.8072 -115.4017 256° West 410 472 40,000  Level Salt Lake Center
Sat 10:12:11 PM 40.7789 -115.5406 255° West 409 471 40,000  Level Salt Lake Center
Sat 10:13:13 PM 40.7456 -115.7028 255° West 409 471 40,000  Level Salt Lake Center
Sat 10:14:14 PM 40.7194 -115.8411 256° West 408 470 40,000  Level Salt Lake Center
Sat 10:15:15 PM 40.6864 -116.0025 255° West 408 470 40,000  Level Salt Lake Center
Sat 10:16:16 PM 40.6586 -116.1403 255° West 407 468 40,000  Level Salt Lake Center
Sat 10:17:17 PM 40.6297 -116.2808 255° West 414 476 40,000  Level Salt Lake Center
Sat 10:18:19 PM 40.5953 -116.4433 254° West 413 475 40,000  Level Salt Lake Center
Sat 10:19:20 PM 40.5669 -116.5833 255° West 415 478 40,000  Level Salt Lake Center
Sat 10:20:21 PM 40.5322 -116.7467 254° West 417 480 40,000  Level Salt Lake Center
Sat 10:21:22 PM 40.5022 -116.8856 254° West 421 484 40,000  Level Salt Lake Center
Sat 10:22:23 PM 40.4692 -117.0489 255° West 427 491 40,000  Level Salt Lake Center
Sat 10:23:25 PM 40.4375 -117.1875 253° West 420 483 40,000  Level Salt Lake Center
Sat 10:24:26 PM 40.4061 -117.3264 254° West 417 480 40,000 -393 Level Salt Lake Center
Sat 10:25:27 PM 40.3708 -117.4892 254° West 417 480 39,200 -836 Descending Salt Lake Center
Sat 10:26:28 PM 40.3400 -117.6283 254° West 415 478 38,300 -964 Descending Salt Lake Center
Sat 10:27:19 PM 40.3103 -117.7647 254° West 413 475 37,400 -964 Descending Oakland Center
Sat 10:28:20 PM 40.2794 -117.9028 254° West 415 478 36,500 -934 Descending Oakland Center
Sat 10:29:21 PM 40.2442 -118.0600 254° West 423 487 35,500 -984 Descending Oakland Center
Sat 10:30:22 PM 40.2114 -118.2036 253° West 416 479 34,500 -984 Descending Oakland Center
Sat 10:31:23 PM 40.1767 -118.3514 253° West 425 489 33,500 -1,721 Descending Oakland Center
Sat 10:32:24 PM 40.1439 -118.5003 254° West 430 495 31,000 -2,361 Descending Oakland Center
Sat 10:33:25 PM 40.1125 -118.6431 254° West 414 476 28,700 -2,213 Descending Oakland Center
Sat 10:34:26 PM 40.0858 -118.7817 256° West 399 459 26,500 -2,164 Descending Oakland Center
Sat 10:35:27 PM 40.0586 -118.9164 255° West 388 447 24,300 -2,182 Descending Oakland Center
Sat 10:36:27 PM 40.0339 -119.0467 256° West 373 429 22,100 -2,083 Descending Oakland Center
Sat 10:37:28 PM 40.0078 -119.1739 255° West 366 421 20,100 -2,213 Descending Oakland Center
Sat 10:38:29 PM 39.9594 -119.2828 240° Southwest 355 409 17,600 -2,705 Descending Oakland Center
Sat 10:39:30 PM 39.8936 -119.4039 235° Southwest 344 396 14,600 -2,705 Descending Oakland Center
Sat 10:40:31 PM 39.8419 -119.5008 235° Southwest 334 384 12,100 -1,770 Descending Oakland Center
Sat 10:41:32 PM 39.7961 -119.5850 235° Southwest 299 344 11,000 -984 Descending Oakland Center
Sat 10:42:33 PM 39.7544 -119.6633 235° Southwest 274 315 10,100 -1,033 Descending Oakland Center
Sat 10:43:34 PM 39.7069 -119.7283 226° Southwest 258 297 8,900 -1,180 Descending Oakland Center
Sat 10:44:35 PM 39.6494 -119.7625 205° Southwest 241 277 7,700 -1,418 Descending Oakland Center
Sat 10:45:24 PM 39.6167 -119.7667 186° South 181 208 6,300 -1,282 Descending Northern Cal TRACON
Sat 10:46:18 PM 39.5667 -119.7667 180° South 156 180 5,500 -842 Descending Northern Cal TRACON
Sat 10:47:18 PM 39.5167 -119.7667 180° South 160 184 4,700 -800 Descending Northern Cal TRACON
Sat 10:49:00 PM 39.4991 -119.7681 201° Southwest  Level Estimated

Login

Don't have an account? Register now (free) for customized features, flight alerts, and more!